You are not logged in, Click here to log in
機場資訊:VDPP Welcome to Taiwan Airways 台灣虛擬航空
ICAO: VDPP Country: 柬埔寨首都金邊以西波成東
Latitude: 11.5461 Longitude: 104.848
Total Arrivals: 3 Total Departures: 3
Latest Arrival: FS69 (VTSP-VDPP)CHU. CHUHAO Latest Departure: FS69 (VDPP-VYYY)CHU. CHUHAO
Scenery:
METAR : VDPP 141800Z VRB02KT 9000 SCT017 SCT040 29/24 Q1010

金邊國際機場